Time;durP1;ratioP1;P1;durP2;ratioP2;P2;SDS_P1;SDS_P2;PMS_P1;PMS_P2;Temp;Humidity;BMP_temperature;BMP_pressure;BME280_temperature;BME280_humidity;BME280_pressure;Samples;Min_cycle;Max_cycle;Signal;HPM_P1;HPM_P2
2023/06/19 00:00:48;;;;;;;11.00;8.13;;;;;17.60;96736.00;;;;5056744;28;20216;-73
2023/06/19 00:03:37;;;;;;;14.23;8.73;;;;;17.50;96733.00;;;;5058123;28;20203;-72
2023/06/19 00:06:27;;;;;;;10.37;9.30;;;;;17.60;96735.00;;;;5053394;28;20201;-73
2023/06/19 00:09:17;;;;;;;11.07;9.40;;;;;17.90;96733.00;;;;5063813;28;20698;-72
2023/06/19 00:12:07;;;;;;;11.23;8.80;;;;;18.20;96743.00;;;;5066320;28;20728;-74
2023/06/19 00:14:56;;;;;;;13.67;10.27;;;;;18.40;96735.00;;;;5064725;28;20208;-73
2023/06/19 00:17:46;;;;;;;9.53;8.60;;;;;18.50;96736.00;;;;5060032;28;20407;-73
2023/06/19 00:20:36;;;;;;;14.93;9.20;;;;;18.50;96746.00;;;;5067141;28;20886;-73
2023/06/19 00:23:25;;;;;;;12.03;8.70;;;;;18.50;96741.00;;;;5062484;28;20278;-73
2023/06/19 00:26:14;;;;;;;9.63;8.63;;;;;18.40;96741.00;;;;5057436;28;20205;-72
2023/06/19 00:29:03;;;;;;;9.23;8.33;;;;;18.50;96733.00;;;;5065055;28;20227;-73
2023/06/19 00:31:52;;;;;;;10.20;8.23;;;;;18.20;96733.00;;;;5065823;28;20599;-73
2023/06/19 00:34:43;;;;;;;10.23;9.13;;;;;18.00;96732.00;;;;5065636;28;20212;-73
2023/06/19 00:37:32;;;;;;;9.27;8.37;;;;;17.70;96729.00;;;;5064810;28;20196;-72
2023/06/19 00:40:27;;;;;;;10.10;8.90;;;;;17.50;96741.00;;;;5063647;28;20219;-73
2023/06/19 00:43:17;;;;;;;9.60;8.47;;;;;17.70;96736.00;;;;5063108;28;20207;-73
2023/06/19 00:46:06;;;;;;;11.10;8.43;;;;;17.80;96735.00;;;;5064513;28;20203;-73
2023/06/19 00:48:55;;;;;;;11.20;8.53;;;;;18.10;96747.00;;;;5057661;28;20219;-73
2023/06/19 00:51:46;;;;;;;12.10;8.67;;;;;17.90;96731.00;;;;5055096;28;20243;-73
2023/06/19 00:54:35;;;;;;;9.93;8.80;;;;;18.10;96728.00;;;;5066035;28;20219;-73
2023/06/19 00:57:24;;;;;;;11.87;10.67;;;;;18.30;96722.00;;;;5056693;28;20204;-73
2023/06/19 01:00:14;;;;;;;12.03;9.03;;;;;18.30;96722.00;;;;5061895;28;20208;-73
2023/06/19 01:03:03;;;;;;;9.63;8.73;;;;;18.00;96723.00;;;;5062367;28;20705;-73
2023/06/19 01:05:54;;;;;;;12.03;8.90;;;;;18.00;96730.00;;;;5055782;28;20196;-73
2023/06/19 01:08:50;;;;;;;8.90;8.00;;;;;17.90;96718.00;;;;5056018;28;20215;-73
2023/06/19 01:11:43;;;;;;;11.77;8.80;;;;;17.80;96716.00;;;;5053658;28;20592;-73
2023/06/19 01:14:36;;;;;;;12.40;9.83;;;;;17.70;96711.00;;;;5064094;28;20583;-73
2023/06/19 01:17:26;;;;;;;10.00;9.00;;;;;17.90;96715.00;;;;5066334;28;20200;-73
2023/06/19 01:20:16;;;;;;;10.30;8.50;;;;;17.80;96710.00;;;;5068402;28;20288;-73
2023/06/19 01:23:11;;;;;;;12.37;10.90;;;;;17.40;96702.00;;;;5062379;28;20231;-73
2023/06/19 01:26:00;;;;;;;14.90;9.60;;;;;17.10;96701.00;;;;5063802;28;20216;-72
2023/06/19 01:28:49;;;;;;;11.80;9.43;;;;;17.10;96702.00;;;;5060831;28;20205;-73
2023/06/19 01:31:43;;;;;;;9.53;8.20;;;;;17.30;96701.00;;;;5059940;28;20226;-73
2023/06/19 01:34:32;;;;;;;12.23;9.33;;;;;16.70;96712.00;;;;5065868;28;20196;-73
2023/06/19 01:37:21;;;;;;;11.10;9.40;;;;;16.70;96706.00;;;;5064974;28;20202;-73
2023/06/19 01:40:13;;;;;;;11.43;10.23;;;;;17.00;96702.00;;;;5057452;28;20217;-73
2023/06/19 01:43:04;;;;;;;10.30;8.60;;;;;17.30;96701.00;;;;5067215;28;20208;-74
2023/06/19 01:45:53;;;;;;;14.20;9.73;;;;;17.60;96703.00;;;;5062152;28;20258;-73
2023/06/19 01:48:42;;;;;;;13.63;10.13;;;;;17.60;96698.00;;;;5055544;28;20308;-74
2023/06/19 01:51:31;;;;;;;11.03;9.50;;;;;17.60;96703.00;;;;5063267;28;20237;-73
2023/06/19 01:54:20;;;;;;;10.73;8.10;;;;;17.10;96699.00;;;;5067711;28;20694;-73
2023/06/19 01:57:11;;;;;;;11.00;8.50;;;;;16.70;96688.00;;;;5064977;28;20204;-73
2023/06/19 02:00:00;;;;;;;11.93;9.73;;;;;16.90;96691.00;;;;5063543;28;20598;-73
2023/06/19 02:02:49;;;;;;;10.07;9.03;;;;;16.60;96690.00;;;;5068222;28;20219;-73
2023/06/19 02:05:39;;;;;;;11.10;10.00;;;;;16.60;96688.00;;;;5066004;28;20917;-73
2023/06/19 02:08:28;;;;;;;14.17;11.23;;;;;16.20;96689.00;;;;5065500;28;20245;-72
2023/06/19 02:11:17;;;;;;;10.37;9.37;;;;;16.60;96699.00;;;;5062874;28;20832;-73
2023/06/19 02:14:08;;;;;;;9.93;8.93;;;;;16.90;96684.00;;;;5062416;28;20854;-73
2023/06/19 02:16:57;;;;;;;11.37;9.90;;;;;16.50;96690.00;;;;5062359;28;20625;-73
2023/06/19 02:19:47;;;;;;;13.53;10.33;;;;;16.00;96692.00;;;;5060452;28;20711;-71
2023/06/19 02:22:36;;;;;;;15.83;10.60;;;;;16.00;96698.00;;;;5062305;28;20218;-72
2023/06/19 02:25:25;;;;;;;10.60;9.60;;;;;16.40;96695.00;;;;5065121;28;20208;-73
2023/06/19 02:28:14;;;;;;;11.77;10.57;;;;;16.80;96696.00;;;;5064334;28;20211;-73
2023/06/19 02:31:04;;;;;;;10.40;9.30;;;;;16.80;96695.00;;;;5057656;28;20235;-73
2023/06/19 02:33:53;;;;;;;11.00;9.60;;;;;16.70;96683.00;;;;5052996;28;20269;-73
2023/06/19 02:36:43;;;;;;;10.63;9.53;;;;;16.80;96690.00;;;;5065916;28;20268;-73
2023/06/19 02:39:32;;;;;;;11.80;9.97;;;;;16.40;96689.00;;;;5067727;28;20227;-73
2023/06/19 02:42:21;;;;;;;10.50;9.50;;;;;15.30;96685.00;;;;5064097;28;20590;-73
2023/06/19 02:45:11;;;;;;;10.37;9.10;;;;;15.60;96680.00;;;;5060077;28;20583;-74
2023/06/19 02:48:01;;;;;;;14.40;10.70;;;;;15.80;96684.00;;;;5062073;28;20200;-74
2023/06/19 02:50:54;;;;;;;13.67;11.47;;;;;15.90;96692.00;;;;5105666;22;20247;-93
2023/06/19 02:53:47;;;;;;;12.53;11.23;;;;;15.80;96690.00;;;;5074671;28;20216;-90
2023/06/19 02:56:36;;;;;;;12.63;9.83;;;;;15.90;96694.00;;;;5086421;28;20196;-91
2023/06/19 02:59:26;;;;;;;13.13;10.60;;;;;15.90;96692.00;;;;5077994;28;20249;-91
2023/06/19 03:02:20;;;;;;;13.10;10.80;;;;;16.00;96701.00;;;;5078677;28;20230;-90
2023/06/19 03:05:17;;;;;;;11.03;9.80;;;;;16.00;96702.00;;;;5081918;28;20207;-92
2023/06/19 03:08:07;;;;;;;13.90;10.87;;;;;15.60;96698.00;;;;5093201;28;20202;-93
2023/06/19 03:10:57;;;;;;;13.47;10.00;;;;;15.40;96714.00;;;;5076387;28;20224;-91
2023/06/19 03:13:48;;;;;;;11.20;10.07;;;;;15.50;96710.00;;;;5074394;28;20224;-92
2023/06/19 03:16:38;;;;;;;21.13;11.40;;;;;15.00;96707.00;;;;5090102;28;20195;-93
2023/06/19 03:19:28;;;;;;;12.90;11.27;;;;;14.90;96705.00;;;;5084297;28;20202;-90
2023/06/19 03:22:20;;;;;;;11.73;10.53;;;;;15.20;96710.00;;;;5073383;28;20196;-91
2023/06/19 03:25:10;;;;;;;12.27;10.43;;;;;15.20;96715.00;;;;5071920;28;20208;-92
2023/06/19 03:28:03;;;;;;;14.27;12.27;;;;;15.30;96716.00;;;;5089223;28;20200;-94
2023/06/19 03:31:03;;;;;;;16.10;10.33;;;;;15.10;96717.00;;;;5081034;28;20216;-91
2023/06/19 03:33:53;;;;;;;18.97;11.40;;;;;15.60;96713.00;;;;5079479;28;20223;-91
2023/06/19 03:36:42;;;;;;;16.90;11.50;;;;;15.60;96718.00;;;;5079222;28;20200;-92
2023/06/19 03:39:33;;;;;;;14.37;10.93;;;;;15.30;96721.00;;;;5077671;28;20219;-91
2023/06/19 03:42:23;;;;;;;12.87;10.83;;;;;15.10;96719.00;;;;5078502;28;20215;-91
2023/06/19 03:45:12;;;;;;;15.20;10.63;;;;;15.30;96726.00;;;;5073312;28;20270;-92
2023/06/19 03:48:02;;;;;;;18.13;13.23;;;;;15.60;96720.00;;;;5074976;28;20724;-92
2023/06/19 03:50:51;;;;;;;14.47;11.17;;;;;15.90;96728.00;;;;5071112;28;20211;-92
2023/06/19 03:53:41;;;;;;;12.37;11.07;;;;;16.00;96722.00;;;;5069578;28;20232;-92
2023/06/19 03:56:39;;;;;;;15.57;10.63;;;;;15.90;96726.00;;;;5070986;28;20203;-91
2023/06/19 03:59:32;;;;;;;18.37;10.57;;;;;15.60;96719.00;;;;5076056;28;20203;-91
2023/06/19 04:02:21;;;;;;;12.57;10.73;;;;;15.50;96727.00;;;;5073080;28;20804;-91
2023/06/19 04:05:10;;;;;;;12.90;11.27;;;;;15.80;96733.00;;;;5070054;28;20270;-90
2023/06/19 04:08:00;;;;;;;12.13;9.73;;;;;15.80;96736.00;;;;5073844;28;20207;-90
2023/06/19 04:10:49;;;;;;;13.67;11.33;;;;;15.80;96731.00;;;;5074280;28;20207;-92
2023/06/19 04:13:40;;;;;;;14.80;11.27;;;;;16.30;96741.00;;;;5073616;28;20239;-91
2023/06/19 04:16:43;;;;;;;14.13;11.50;;;;;16.40;96745.00;;;;5073148;28;20236;-92
2023/06/19 04:19:44;;;;;;;13.37;9.80;;;;;16.60;96759.00;;;;5063177;28;20196;-89
2023/06/19 04:22:33;;;;;;;12.17;10.30;;;;;16.70;96745.00;;;;5069509;28;20200;-89
2023/06/19 04:25:22;;;;;;;13.27;10.63;;;;;16.50;96733.00;;;;5069102;28;20743;-89
2023/06/19 04:28:12;;;;;;;11.43;10.33;;;;;16.60;96745.00;;;;5069823;28;20577;-89
2023/06/19 04:31:02;;;;;;;12.13;10.83;;;;;16.70;96746.00;;;;5067711;28;20261;-91
2023/06/19 04:33:52;;;;;;;15.60;11.23;;;;;16.70;96745.00;;;;5067527;28;20713;-91
2023/06/19 04:36:41;;;;;;;13.20;11.20;;;;;17.10;96741.00;;;;5065069;28;20200;-90
2023/06/19 04:39:31;;;;;;;14.07;10.80;;;;;17.10;96747.00;;;;5068193;28;20203;-89
2023/06/19 04:42:21;;;;;;;12.87;10.40;;;;;16.70;96741.00;;;;5073538;28;20202;-88
2023/06/19 04:45:11;;;;;;;14.90;10.53;;;;;16.90;96750.00;;;;5063294;28;20211;-89
2023/06/19 04:48:03;;;;;;;11.87;10.67;;;;;16.80;96746.00;;;;5066641;28;20343;-90
2023/06/19 04:50:55;;;;;;;14.23;11.33;;;;;17.20;96742.00;;;;5072832;28;20273;-91
2023/06/19 04:53:45;;;;;;;12.33;11.13;;;;;17.40;96739.00;;;;5066889;28;20229;-90
2023/06/19 04:56:34;;;;;;;12.07;10.70;;;;;17.10;96732.00;;;;5063501;28;20223;-90
2023/06/19 04:59:23;;;;;;;12.53;10.90;;;;;17.00;96735.00;;;;5063992;28;20204;-90
2023/06/19 05:02:12;;;;;;;13.80;11.67;;;;;17.10;96734.00;;;;5066828;28;20208;-89
2023/06/19 05:05:03;;;;;;;13.67;11.40;;;;;17.50;96736.00;;;;5074914;28;20228;-89
2023/06/19 05:07:53;;;;;;;13.53;11.53;;;;;17.60;96740.00;;;;5072926;28;20218;-89
2023/06/19 05:10:42;;;;;;;14.40;11.20;;;;;18.10;96739.00;;;;5076337;28;20257;-89
2023/06/19 05:13:33;;;;;;;13.07;10.60;;;;;18.20;96741.00;;;;5068218;28;20226;-90
2023/06/19 05:16:22;;;;;;;13.43;11.63;;;;;17.80;96729.00;;;;5066978;28;20227;-90
2023/06/19 05:19:12;;;;;;;12.37;10.33;;;;;18.20;96744.00;;;;5071216;28;20212;-90
2023/06/19 05:22:03;;;;;;;12.97;11.60;;;;;18.50;96741.00;;;;5068624;28;20192;-91
2023/06/19 05:25:00;;;;;;;15.77;11.83;;;;;18.30;96739.00;;;;5065819;28;20587;-92
2023/06/19 05:27:51;;;;;;;13.77;10.70;;;;;18.90;96735.00;;;;5068955;28;20266;-89
2023/06/19 05:30:42;;;;;;;14.07;10.33;;;;;19.40;96741.00;;;;5072864;28;20196;-91
2023/06/19 05:33:31;;;;;;;16.00;12.13;;;;;19.60;96740.00;;;;5070102;28;20220;-89
2023/06/19 05:36:20;;;;;;;12.17;10.50;;;;;20.00;96739.00;;;;5069763;28;20881;-90
2023/06/19 05:39:13;;;;;;;15.17;10.87;;;;;19.70;96731.00;;;;5064764;28;20205;-91
2023/06/19 05:42:02;;;;;;;12.30;10.57;;;;;20.00;96735.00;;;;5072789;28;20203;-91
2023/06/19 05:44:51;;;;;;;16.10;10.27;;;;;20.10;96748.00;;;;5075200;28;20220;-89
2023/06/19 05:47:41;;;;;;;16.17;11.40;;;;;20.10;96741.00;;;;5080337;28;20741;-90
2023/06/19 05:50:30;;;;;;;15.37;11.13;;;;;20.50;96751.00;;;;5076260;28;20210;-90
2023/06/19 05:53:20;;;;;;;16.83;11.47;;;;;20.90;96758.00;;;;5078933;28;20235;-88
2023/06/19 05:56:11;;;;;;;19.97;11.83;;;;;20.90;96746.00;;;;5070981;28;20286;-90
2023/06/19 05:59:01;;;;;;;14.60;11.23;;;;;20.90;96750.00;;;;5065824;28;20207;-90
2023/06/19 06:01:52;;;;;;;18.07;11.13;;;;;20.80;96752.00;;;;5068708;28;20231;-90
2023/06/19 06:04:42;;;;;;;21.77;11.07;;;;;21.40;96742.00;;;;5069510;28;20234;-90
2023/06/19 06:07:31;;;;;;;16.97;12.03;;;;;21.90;96745.00;;;;5067665;28;20196;-89
2023/06/19 06:10:21;;;;;;;19.87;11.53;;;;;22.10;96744.00;;;;5070535;28;20234;-89
2023/06/19 06:13:12;;;;;;;12.50;11.07;;;;;21.90;96741.00;;;;5065844;28;20262;-90
2023/06/19 06:16:01;;;;;;;14.63;10.60;;;;;21.80;96741.00;;;;5070158;28;20257;-90
2023/06/19 06:18:50;;;;;;;14.67;10.60;;;;;22.00;96741.00;;;;5070576;28;20215;-89
2023/06/19 06:21:40;;;;;;;16.63;9.47;;;;;22.60;96754.00;;;;5066629;28;20216;-89
2023/06/19 06:24:30;;;;;;;16.20;10.67;;;;;22.50;96753.00;;;;5061677;28;20716;-90
2023/06/19 06:27:19;;;;;;;15.00;10.90;;;;;22.80;96753.00;;;;5069697;28;20257;-89
2023/06/19 06:30:12;;;;;;;12.70;11.13;;;;;23.20;96743.00;;;;5069818;28;20207;-89
2023/06/19 06:33:02;;;;;;;13.43;10.50;;;;;23.10;96747.00;;;;5065777;28;20220;-90
2023/06/19 06:39:26;;;;;;;16.10;10.03;;;;;23.10;96747.00;;;;5064544;28;20242;-90
2023/06/19 06:45:38;;;;;;;10.07;8.77;;;;;23.70;96742.00;;;;4986355;28;20233;-69
2023/06/19 06:48:28;;;;;;;12.93;10.83;;;;;23.80;96739.00;;;;4984217;28;20209;-69
2023/06/19 06:51:17;;;;;;;14.20;9.90;;;;;23.80;96745.00;;;;4988997;28;20230;-69
2023/06/19 06:54:06;;;;;;;13.60;10.07;;;;;23.80;96744.00;;;;4992457;28;20230;-69
2023/06/19 06:56:58;;;;;;;12.20;10.27;;;;;24.20;96753.00;;;;4989741;28;20210;-69
2023/06/19 06:59:47;;;;;;;14.00;9.03;;;;;24.60;96748.00;;;;4986532;28;20222;-70
2023/06/19 07:02:39;;;;;;;10.03;8.50;;;;;24.60;96742.00;;;;4993326;28;20218;-70
2023/06/19 07:05:29;;;;;;;11.37;9.67;;;;;24.90;96748.00;;;;4987391;28;20199;-70
2023/06/19 07:08:18;;;;;;;11.93;9.60;;;;;25.30;96746.00;;;;4989874;28;20229;-71
2023/06/19 07:11:08;;;;;;;12.27;10.23;;;;;25.70;96741.00;;;;4995466;28;20229;-70
2023/06/19 07:13:57;;;;;;;11.97;9.13;;;;;25.60;96736.00;;;;4988700;28;20230;-70
2023/06/19 07:16:46;;;;;;;12.30;8.97;;;;;25.70;96731.00;;;;4985993;28;20214;-70
2023/06/19 07:19:36;;;;;;;11.80;8.70;;;;;25.80;96731.00;;;;4995215;28;20704;-69
2023/06/19 07:22:25;;;;;;;10.80;9.70;;;;;26.10;96743.00;;;;4992013;28;20561;-71
2023/06/19 07:25:15;;;;;;;12.70;9.27;;;;;26.20;96729.00;;;;4989834;28;20199;-71
2023/06/19 07:28:05;;;;;;;10.33;9.27;;;;;26.70;96742.00;;;;4985904;28;20309;-71
2023/06/19 07:30:54;;;;;;;11.60;9.13;;;;;26.80;96736.00;;;;4989061;28;20226;-68
2023/06/19 07:33:43;;;;;;;9.80;8.77;;;;;27.00;96744.00;;;;4992152;28;20222;-68
2023/06/19 07:36:34;;;;;;;12.70;8.93;;;;;26.80;96742.00;;;;4991400;28;20213;-69
2023/06/19 07:39:23;;;;;;;10.67;8.40;;;;;26.80;96744.00;;;;4989027;28;20222;-69
2023/06/19 07:42:12;;;;;;;9.40;8.50;;;;;27.10;96743.00;;;;4989150;28;20218;-69
2023/06/19 07:45:01;;;;;;;12.55;9.23;;;;;27.10;96746.00;;;;4990657;28;20416;-71
2023/06/19 07:47:55;;;;;;;9.67;8.70;;;;;27.40;96740.00;;;;4984023;28;20262;-71
2023/06/19 07:50:45;;;;;;;11.20;9.10;;;;;27.50;96732.00;;;;4989436;28;20231;-71
2023/06/19 07:53:39;;;;;;;11.00;9.37;;;;;27.80;96735.00;;;;4992588;28;20240;-70
2023/06/19 07:56:28;;;;;;;9.43;8.43;;;;;28.00;96729.00;;;;4993189;28;20672;-70
2023/06/19 07:59:17;;;;;;;15.73;9.40;;;;;27.80;96743.00;;;;4989632;28;20208;-70
2023/06/19 08:02:07;;;;;;;11.27;8.53;;;;;27.10;96735.00;;;;4993318;28;20236;-70
2023/06/19 08:04:56;;;;;;;10.43;8.63;;;;;27.10;96731.00;;;;4994414;28;20208;-69
2023/06/19 08:07:45;;;;;;;9.93;8.40;;;;;28.00;96736.00;;;;4984770;28;20240;-70
2023/06/19 08:10:36;;;;;;;12.63;8.67;;;;;28.50;96730.00;;;;4993010;28;20232;-71
2023/06/19 08:13:25;;;;;;;8.70;7.70;;;;;29.00;96733.00;;;;4987191;28;20601;-71
2023/06/19 08:16:14;;;;;;;9.93;8.30;;;;;28.90;96724.00;;;;4990814;28;20676;-71
2023/06/19 08:19:03;;;;;;;8.87;8.07;;;;;29.40;96732.00;;;;4989658;28;20209;-70
2023/06/19 08:21:52;;;;;;;10.77;9.03;;;;;29.60;96728.00;;;;4989027;28;20662;-71
2023/06/19 08:24:42;;;;;;;12.17;9.40;;;;;30.00;96727.00;;;;4993908;28;20745;-71
2023/06/19 08:27:32;;;;;;;9.43;8.43;;;;;30.10;96729.00;;;;4994636;28;20202;-71
2023/06/19 08:30:21;;;;;;;12.13;8.20;;;;;30.40;96732.00;;;;4989462;28;20224;-70
2023/06/19 08:33:11;;;;;;;11.43;9.40;;;;;30.60;96740.00;;;;4987444;28;20213;-72
2023/06/19 08:36:00;;;;;;;13.63;8.93;;;;;30.90;96741.00;;;;4992391;28;20296;-72
2023/06/19 08:38:50;;;;;;;10.27;8.40;;;;;31.00;96731.00;;;;4989554;28;20208;-71
2023/06/19 08:41:41;;;;;;;24.13;11.70;;;;;30.90;96743.00;;;;4988767;28;20228;-71
2023/06/19 08:44:31;;;;;;;10.37;7.80;;;;;31.20;96728.00;;;;4990682;28;20221;-72
2023/06/19 08:47:20;;;;;;;9.20;7.87;;;;;31.20;96725.00;;;;4990094;28;20195;-73
2023/06/19 08:50:10;;;;;;;19.10;9.00;;;;;31.60;96730.00;;;;4989839;28;20723;-72
2023/06/19 08:52:59;;;;;;;9.50;7.73;;;;;31.40;96726.00;;;;4987165;28;20207;-72
2023/06/19 08:55:50;;;;;;;9.43;8.40;;;;;30.30;96724.00;;;;4992902;28;20588;-69
2023/06/19 08:58:40;;;;;;;10.73;8.27;;;;;30.80;96726.00;;;;4989010;28;20202;-70
2023/06/19 09:01:32;;;;;;;8.67;7.67;;;;;31.90;96718.00;;;;5019761;23;20227;-75
2023/06/19 09:04:22;;;;;;;10.90;8.77;;;;;32.10;96724.00;;;;4997672;28;20195;-75
2023/06/19 09:07:14;;;;;;;12.80;7.73;;;;;32.30;96727.00;;;;5007127;28;20320;-75
2023/06/19 09:10:14;;;;;;;9.77;7.47;;;;;31.10;96723.00;;;;4998298;28;20206;-74
2023/06/19 09:13:04;;;;;;;7.93;7.13;;;;;32.20;96712.00;;;;4991822;28;20250;-74
2023/06/19 09:16:01;;;;;;;12.57;8.03;;;;;32.40;96724.00;;;;5000118;28;20682;-74
2023/06/19 09:18:52;;;;;;;10.53;7.60;;;;;31.00;96715.00;;;;4993503;28;20207;-74
2023/06/19 09:21:41;;;;;;;8.80;7.90;;;;;32.20;96708.00;;;;4998920;28;20232;-74
2023/06/19 09:24:37;;;;;;;8.17;7.37;;;;;31.50;96707.00;;;;4996328;28;20204;-74
2023/06/19 09:27:26;;;;;;;9.97;8.13;;;;;32.40;96705.00;;;;4992803;28;20197;-74
2023/06/19 09:30:17;;;;;;;9.77;7.80;;;;;33.20;96706.00;;;;5001153;28;20692;-74
2023/06/19 09:33:08;;;;;;;8.87;7.60;;;29.70;85.00;33.60;96694.00;;;;4996640;28;20227;-74
2023/06/19 09:36:00;;;;;;;10.00;8.57;;;29.90;85.60;33.20;96688.00;;;;4999587;28;20742;-74
2023/06/19 09:38:50;;;;;;;11.13;7.88;;;30.20;84.10;32.80;96696.00;;;;4998483;28;20207;-74
2023/06/19 09:41:42;;;;;;;10.35;8.07;;;30.10;80.70;33.90;96686.00;;;;4993725;28;20239;-74
2023/06/19 09:44:32;;;;;;;8.73;7.88;;;30.40;80.40;34.30;96699.00;;;;5008626;28;20198;-74
2023/06/19 09:47:26;;;;;;;9.48;7.45;;;30.60;78.70;34.80;96685.00;;;;5003155;28;20680;-74
2023/06/19 09:50:16;;;;;;;9.63;8.57;;;30.90;78.60;34.80;96687.00;;;;4998858;28;20217;-74
2023/06/19 09:53:07;;;;;;;9.57;8.45;;;31.10;77.20;34.40;96676.00;;;;5003006;28;20687;-73
2023/06/19 09:55:56;;;;;;;8.45;7.47;;;31.40;76.10;34.10;96672.00;;;;5004180;28;20224;-74
2023/06/19 09:58:45;;;;;;;9.82;7.90;;;31.40;75.80;35.40;96674.00;;;;5001871;28;20213;-74
2023/06/19 10:01:35;;;;;;;8.57;7.72;;;31.60;75.20;35.20;96670.00;;;;5003903;28;20231;-74
2023/06/19 10:04:24;;;;;;;8.32;7.53;;;31.90;71.50;36.20;96670.00;;;;5005770;28;20270;-74
2023/06/19 10:07:22;;;;;;;9.85;7.25;;;32.30;72.20;34.90;96693.00;;;;5002504;28;20271;-74
2023/06/19 10:10:24;;;;;;;8.68;7.78;;;32.30;71.60;33.80;96690.00;;;;4996370;28;20924;-75
2023/06/19 10:13:15;;;;;;;8.68;7.88;;;31.80;68.30;35.80;96665.00;;;;5002624;28;20538;-75
2023/06/19 10:16:04;;;;;;;9.43;7.68;;;32.00;69.50;36.60;96665.00;;;;5007841;28;20693;-75
2023/06/19 10:18:53;;;;;;;12.98;7.32;;;32.40;70.70;35.70;96681.00;;;;5011509;28;20202;-75
2023/06/19 10:21:46;;;;;;;8.52;7.40;;;32.50;68.60;34.10;96698.00;;;;5007008;28;20223;-74
2023/06/19 10:24:36;;;;;;;11.57;7.22;;;32.10;65.00;34.10;96702.00;;;;5004296;28;20209;-75
2023/06/19 10:27:27;;;;;;;9.27;7.65;;;31.90;64.50;32.20;96698.00;;;;5002523;28;20208;-74
2023/06/19 10:30:19;;;;;;;8.07;7.28;;;31.20;62.70;31.20;96701.00;;;;5002217;28;20209;-74
2023/06/19 10:33:08;;;;;;;9.30;7.68;;;;;30.70;96700.00;;;;5000442;28;20234;-72
2023/06/19 10:35:57;;;;;;;10.23;9.23;;;;;30.60;96690.00;;;;5001703;28;20250;-73
2023/06/19 10:38:47;;;;;;;10.00;9.07;;;;;30.00;96701.00;;;;5001230;28;20201;-69
2023/06/19 10:41:37;;;;;;;10.03;8.87;;;;;30.30;96704.00;;;;4994321;28;20249;-73
2023/06/19 10:44:27;;;;;;;9.07;8.03;;;;;30.80;96705.00;;;;5000351;28;20208;-70
2023/06/19 10:47:16;;;;;;;14.80;9.33;;;;;32.10;96702.00;;;;5000106;28;20210;-72
2023/06/19 10:50:07;;;;;;;9.70;8.80;;;;;31.20;96696.00;;;;4994800;28;20307;-72
2023/06/19 10:53:00;;;;;;;10.73;9.63;;;;;31.80;96701.00;;;;4993547;28;20232;-73
2023/06/19 10:55:49;;;;;;;11.23;8.53;;;;;31.50;96708.00;;;;4998421;28;20239;-73
2023/06/19 10:58:38;;;;;;;9.90;8.57;;;;;32.00;96705.00;;;;5001119;28;20218;-73
2023/06/19 11:01:35;;;;;;;11.63;9.63;;;;;32.30;96707.00;;;;4999129;28;20724;-73
2023/06/19 11:04:25;;;;;;;11.83;9.10;;;;;32.20;96708.00;;;;5000257;28;20259;-71
2023/06/19 11:07:14;;;;;;;10.25;9.25;;;;;31.80;96710.00;;;;5000926;28;20212;-73
2023/06/19 11:10:04;;;;;;;9.60;8.63;;;;;31.70;96705.00;;;;5004773;28;20594;-71
2023/06/19 11:12:56;;;;;;;10.70;9.53;;;;;31.10;96714.00;;;;4998503;28;20240;-74
2023/06/19 11:15:45;;;;;;;10.67;9.13;;;;;31.20;96707.00;;;;4995992;28;20263;-71
2023/06/19 11:18:36;;;;;;;10.77;9.60;;;;;31.60;96713.00;;;;5003497;28;20226;-72
2023/06/19 11:21:32;;;;;;;10.30;9.27;;;;;31.70;96711.00;;;;4998356;28;20718;-73
2023/06/19 11:24:23;;;;;;;10.07;8.77;;;;;32.50;96711.00;;;;4997913;28;20728;-72
2023/06/19 11:27:19;;;;;;;9.80;8.90;;;;;32.80;96718.00;;;;5003347;28;20855;-73
2023/06/19 11:30:09;;;;;;;9.17;8.23;;;;;32.90;96703.00;;;;4998719;28;20743;-73
2023/06/19 11:32:58;;;;;;;9.07;8.17;;;;;32.80;96706.00;;;;4997568;28;20275;-73
2023/06/19 11:35:50;;;;;;;8.35;6.93;;;;;32.60;96711.00;;;;5000921;28;20230;-71
2023/06/19 11:38:40;;;;;;;7.30;6.57;;;;;32.20;96710.00;;;;4993137;28;20207;-73
2023/06/19 11:41:30;;;;;;;7.95;5.85;;;;;32.20;96710.00;;;;4997251;28;20225;-72
2023/06/19 11:44:19;;;;;;;5.45;4.82;;;;;32.30;96714.00;;;;4994919;28;20223;-74
2023/06/19 11:47:08;;;;;;;8.63;4.63;;;;;33.30;96718.00;;;;4994166;28;20729;-73
2023/06/19 11:49:57;;;;;;;4.93;4.38;;;;;33.60;96705.00;;;;5003132;28;20231;-73
2023/06/19 11:52:48;;;;;;;6.22;5.07;;;;;34.00;96707.00;;;;4994185;28;20270;-73
2023/06/19 11:55:37;;;;;;;4.80;4.20;;;;;33.20;96703.00;;;;4997233;28;20230;-74
2023/06/19 11:58:27;;;;;;;4.85;4.35;;;;;33.80;96698.00;;;;4997539;28;20211;-74
2023/06/19 12:01:16;;;;;;;4.93;4.43;;;;;34.10;96692.00;;;;4996403;28;20239;-74
2023/06/19 12:04:05;;;;;;;5.80;4.22;;;30.90;59.90;35.60;96627.00;;;;5007898;28;20215;-74
2023/06/19 12:06:54;;;;;;;5.35;4.85;;;31.30;60.70;36.90;96652.00;;;;4999083;28;20205;-74
2023/06/19 12:09:44;;;;;;;5.90;5.07;;;32.00;59.40;37.90;96628.00;;;;5004831;28;20082;-74
2023/06/19 12:12:34;;;;;;;5.10;4.57;;;32.70;59.20;36.30;96637.00;;;;4997784;28;20217;-73
2023/06/19 12:15:24;;;;;;;6.85;4.68;;;33.10;54.20;37.30;96636.00;;;;5003528;28;20614;-75
2023/06/19 12:18:13;;;;;;;5.97;5.38;;;33.30;55.10;37.50;96633.00;;;;5001014;28;20233;-74
2023/06/19 12:21:02;;;;;;;6.07;5.57;;;33.60;54.70;35.70;96634.00;;;;4996580;28;20579;-75
2023/06/19 12:23:51;;;;;;;6.63;5.65;;;33.70;54.60;37.90;96635.00;;;;5000303;28;20203;-74
2023/06/19 12:26:41;;;;;;;6.10;5.53;;;33.90;56.00;39.40;96638.00;;;;4999267;28;20666;-74
2023/06/19 12:29:30;;;;;;;6.03;5.43;;;34.40;55.60;39.40;96639.00;;;;4993753;28;20389;-74
2023/06/19 12:32:20;;;;;;;9.27;6.38;;;34.80;53.10;40.10;96637.00;;;;4991967;28;20394;-74
2023/06/19 12:35:10;;;;;;;5.63;5.18;;;35.20;54.10;40.40;96634.00;;;;5003183;28;20212;-73
2023/06/19 12:37:59;;;;;;;5.72;5.22;;;35.70;53.10;40.10;96638.00;;;;4997324;28;20217;-74
2023/06/19 12:40:47;;;;;;;8.02;6.28;;;36.00;52.60;40.80;96632.00;;;;4999846;28;20217;-74
2023/06/19 12:43:38;;;;;;;5.93;5.25;;;36.30;52.30;41.20;96649.00;;;;5000895;28;20252;-74
2023/06/19 12:46:26;;;;;;;6.70;5.75;;;36.50;52.30;41.80;96644.00;;;;4997286;28;20563;-74
2023/06/19 12:49:15;;;;;;;6.40;5.80;;;36.90;51.90;41.60;96634.00;;;;4995781;28;20202;-74
2023/06/19 12:52:05;;;;;;;6.15;5.50;;;37.20;50.70;41.10;96634.00;;;;4996320;28;20226;-74
2023/06/19 12:54:54;;;;;;;6.38;5.05;;;37.30;49.40;40.50;96642.00;;;;5003464;28;20582;-74
2023/06/19 12:57:44;;;;;;;5.65;5.15;;;37.20;47.70;41.30;96641.00;;;;4995501;28;20223;-74
2023/06/19 13:00:34;;;;;;;8.57;5.60;;;37.30;49.40;41.60;96634.00;;;;5004574;28;20198;-75
2023/06/19 13:03:23;;;;;;;7.40;6.32;;;37.40;48.90;41.80;96629.00;;;;4995099;28;20286;-75
2023/06/19 13:06:12;;;;;;;5.70;5.18;;;37.50;48.40;41.50;96629.00;;;;4997648;28;20633;-75
2023/06/19 13:09:01;;;;;;;5.68;5.18;;;37.70;47.70;40.70;96629.00;;;;5003528;28;20197;-75
2023/06/19 13:11:51;;;;;;;6.78;6.07;;;37.60;46.80;41.50;96633.00;;;;5001208;28;20226;-75
2023/06/19 13:14:40;;;;;;;7.03;6.38;;;37.50;46.90;40.50;96636.00;;;;5003586;28;20202;-76
2023/06/19 13:17:31;;;;;;;9.27;7.70;;;37.60;49.10;36.40;96643.00;;;;5003642;28;20309;-71
2023/06/19 13:20:20;;;;;;;8.93;8.13;;;37.10;52.60;38.80;96650.00;;;;5001862;28;20201;-75
2023/06/19 13:23:09;;;;;;;12.35;9.32;;;36.40;54.70;39.50;96646.00;;;;5002646;28;20711;-73
2023/06/19 13:25:58;;;;;;;11.00;9.02;;;36.40;55.70;40.50;96666.00;;;;5004493;28;20206;-75
2023/06/19 13:28:47;;;;;;;8.20;7.40;;;36.40;55.10;40.50;96648.00;;;;4999347;28;20682;-73
2023/06/19 13:31:35;;;;;;;9.00;7.68;;;36.60;55.40;41.80;96639.00;;;;5000813;28;20245;-73
2023/06/19 13:34:26;;;;;;;8.35;6.88;;;36.90;55.90;41.30;96642.00;;;;5001806;28;20205;-73
2023/06/19 13:37:14;;;;;;;9.13;8.20;;;37.20;54.80;40.40;96710.00;;;;5006224;28;20225;-73
2023/06/19 13:40:04;;;;;;;9.25;8.55;;;37.30;54.00;38.70;96723.00;;;;4998191;28;20586;-73
2023/06/19 13:42:53;;;;;;;8.70;7.88;;;36.70;55.00;37.50;96712.00;;;;5002045;28;20230;-72
2023/06/19 13:45:41;;;;;;;9.30;8.43;;;36.10;55.40;36.10;96658.00;;;;5001803;28;20210;-74
2023/06/19 13:48:30;;;;;;;9.00;8.02;;;35.50;55.90;36.50;96693.00;;;;5000464;28;20716;-74